Kuala Belait, Brunei
Current Conditions -  °F | °C
As of 4:00 PM on Thursday 23 Oct 2014 (Local Time) from WBGR Reporting Station
Broken Clouds Broken Clouds  
Wind Chill: 82°   Ceiling: 15000
Heat Index: 91°   Visibility: 6mi
Dew Point: 77°   Wind: 5mph
Humidity: 84%   Direction: 230°SW
Pressure: 29.77"   Gusts: NA
Location:  4.59°N, 114.18°E
Report Text: WBGR 230800Z 23004KT 9999 SCT014 BKN150 28/25 Q1008
Loading
Personal Weather Stations






























Interactive Weather Map
Tropical Storm Tracking
New forecast layout! Learn more

10-Day Weather Forecast

Advertisements
Track Severe Weather on mobile